Time;durP1;ratioP1;P1;durP2;ratioP2;P2;SDS_P1;SDS_P2;PMS_P1;PMS_P2;Temp;Humidity;BMP_temperature;BMP_pressure;BME280_temperature;BME280_humidity;BME280_pressure;Samples;Min_cycle;Max_cycle;Signal;HPM_P1;HPM_P2
2022/09/14 00:02:10;;;;;;;4.27;2.80;;;;;;;;;;4935041;28;20438;-57
2022/09/14 00:04:36;;;;;;;3.40;2.83;;;;;;;;;;4965489;28;20951;-56
2022/09/14 00:07:02;;;;;;;3.33;2.37;;;;;;;;;;4937803;28;20456;-56
2022/09/14 00:09:28;;;;;;;3.30;2.90;;;;;;;;;;4956426;28;21846;-56
2022/09/14 00:11:54;;;;;;;4.53;2.90;;;;;;;;;;4934768;28;20473;-55
2022/09/14 00:14:20;;;;;;;3.17;2.70;;;;;;;;;;4941098;28;20485;-55
2022/09/14 00:16:46;;;;;;;3.20;2.90;;;;;;;;;;4970628;28;20839;-55
2022/09/14 00:19:17;;;;;;;2.83;2.30;;;;;;;;;;4936579;28;21212;-55
2022/09/14 00:21:43;;;;;;;4.53;2.73;;;;;;;;;;4939404;28;21146;-55
2022/09/14 00:24:09;;;;;;;7.73;2.63;;;;;;;;;;4947753;28;20445;-55
2022/09/14 00:26:36;;;;;;;2.83;2.40;;;;;;;;;;4901180;28;20453;-61
2022/09/14 00:29:03;;;;;;;4.30;2.63;;;;;;;;;;4945027;28;20560;-54
2022/09/14 00:31:29;;;;;;;5.23;2.70;;;;;;;;;;4935852;28;21624;-55
2022/09/14 00:33:55;;;;;;;2.70;2.40;;;;;;;;;;4948966;28;20481;-55
2022/09/14 00:36:26;;;;;;;4.87;3.07;;;;;;;;;;4935092;28;20577;-56
2022/09/14 00:38:55;;;;;;;2.80;2.33;;;;;;;;;;4944678;28;20450;-56
2022/09/14 00:41:22;;;;;;;3.60;2.33;;;;;;;;;;4947700;28;20430;-56
2022/09/14 00:43:56;;;;;;;4.77;2.60;;;;;;;;;;4946228;28;20445;-56
2022/09/14 00:46:22;;;;;;;4.17;2.40;;;;;;;;;;4957509;28;20456;-56
2022/09/14 00:48:48;;;;;;;3.20;2.40;;;;;;;;;;4958064;28;21005;-54
2022/09/14 00:51:14;;;;;;;2.93;2.30;;;;;;;;;;4952231;28;20445;-58
2022/09/14 00:53:40;;;;;;;4.50;3.73;;;;;;;;;;4936866;28;20482;-54
2022/09/14 00:56:16;;;;;;;2.70;2.20;;;;;;;;;;4947057;28;20446;-56
2022/09/14 00:58:42;;;;;;;3.57;2.60;;;;;;;;;;4922044;28;20457;-55
2022/09/14 01:01:09;;;;;;;3.80;2.57;;;;;;;;;;4951069;28;20965;-58
2022/09/14 01:03:35;;;;;;;3.33;2.80;;;;;;;;;;4949546;28;20433;-56
2022/09/14 01:06:10;;;;;;;2.70;2.50;;;;;;;;;;4967350;28;20576;-55
2022/09/14 01:08:43;;;;;;;4.40;2.87;;;;;;;;;;4956921;28;20444;-55
2022/09/14 01:11:34;;;;;;;5.90;2.70;;;;;;;;;;4960186;28;20461;-56
2022/09/14 01:14:11;;;;;;;3.03;2.70;;;;;;;;;;4948965;28;20516;-59
2022/09/14 01:16:37;;;;;;;3.10;2.70;;;;;;;;;;4946803;28;20441;-59
2022/09/14 01:19:06;;;;;;;3.03;2.73;;;;;;;;;;4961978;28;20920;-57
2022/09/14 01:21:33;;;;;;;2.77;2.47;;;;;;;;;;4961251;28;20580;-57
2022/09/14 01:24:13;;;;;;;3.37;2.67;;;;;;;;;;4906052;28;20462;-57
2022/09/14 01:26:56;;;;;;;3.37;2.40;;;;;;;;;;4957199;28;20443;-62
2022/09/14 01:29:30;;;;;;;5.50;4.27;;;;;;;;;;4921012;28;20446;-53
2022/09/14 01:32:02;;;;;;;4.47;2.90;;;;;;;;;;4952016;28;21390;-54
2022/09/14 01:34:32;;;;;;;38.50;5.60;;;;;;;;;;4940421;28;20818;-56
2022/09/14 01:37:17;;;;;;;7.07;3.10;;;;;;;;;;4961320;28;20449;-57
2022/09/14 01:39:44;;;;;;;5.60;3.37;;;;;;;;;;4937319;28;20806;-54
2022/09/14 01:42:11;;;;;;;4.83;2.27;;;;;;;;;;4958130;28;20549;-54
2022/09/14 01:44:38;;;;;;;7.47;2.87;;;;;;;;;;4950565;28;21194;-55
2022/09/14 01:47:09;;;;;;;3.90;2.73;;;;;;;;;;4922193;28;20456;-54
2022/09/14 01:49:42;;;;;;;7.77;3.60;;;;;;;;;;4955925;28;21234;-55
2022/09/14 01:52:15;;;;;;;8.53;3.27;;;;;;;;;;4937686;28;20444;-58
2022/09/14 01:54:46;;;;;;;8.80;3.70;;;;;;;;;;4964791;28;20507;-55
2022/09/14 01:57:16;;;;;;;6.57;3.30;;;;;;;;;;4926911;28;22627;-55
2022/09/14 01:59:43;;;;;;;8.10;3.17;;;;;;;;;;4964200;28;20985;-55
2022/09/14 02:02:21;;;;;;;7.63;3.00;;;;;;;;;;4923233;28;20446;-55
2022/09/14 02:04:52;;;;;;;6.13;3.17;;;;;;;;;;4961633;28;20486;-54
2022/09/14 02:07:18;;;;;;;7.37;3.10;;;;;;;;;;4937254;28;21225;-55
2022/09/14 02:09:44;;;;;;;5.07;2.87;;;;;;;;;;4965308;28;20482;-55
2022/09/14 02:12:10;;;;;;;12.83;3.93;;;;;;;;;;4940082;28;20446;-54
2022/09/14 02:14:36;;;;;;;8.80;3.80;;;;;;;;;;4959819;28;20494;-55
2022/09/14 02:17:02;;;;;;;4.07;3.67;;;;;;;;;;4936543;28;20450;-54
2022/09/14 02:19:30;;;;;;;4.57;3.23;;;;;;;;;;4958671;28;20484;-54
2022/09/14 02:21:56;;;;;;;7.30;3.60;;;;;;;;;;4955378;28;20450;-54
2022/09/14 02:24:22;;;;;;;5.67;4.20;;;;;;;;;;4959608;28;20458;-54
2022/09/14 02:26:48;;;;;;;5.47;4.03;;;;;;;;;;4960176;28;20517;-62
2022/09/14 02:29:14;;;;;;;12.47;4.10;;;;;;;;;;4929885;28;22036;-55
2022/09/14 02:31:46;;;;;;;5.87;4.10;;;;;;;;;;4964340;28;20438;-54
2022/09/14 02:34:19;;;;;;;7.30;3.80;;;;;;;;;;4922567;28;20222;-53
2022/09/14 02:37:05;;;;;;;4.30;3.90;;;;;;;;;;4961386;28;20943;-53
2022/09/14 02:39:50;;;;;;;5.20;4.27;;;;;;;;;;4948457;28;20433;-53
2022/09/14 02:42:23;;;;;;;5.10;3.97;;;;;;;;;;4956905;28;20438;-54
2022/09/14 02:45:04;;;;;;;5.00;3.93;;;;;;;;;;4941454;28;20445;-54
2022/09/14 02:47:30;;;;;;;5.00;4.00;;;;;;;;;;4960274;28;20480;-54
2022/09/14 02:50:02;;;;;;;6.20;4.23;;;;;;;;;;4937542;28;20537;-54
2022/09/14 02:52:33;;;;;;;4.67;3.60;;;;;;;;;;4954551;28;20418;-56
2022/09/14 02:55:18;;;;;;;8.00;4.07;;;;;;;;;;4957573;28;20444;-54
2022/09/14 02:58:02;;;;;;;4.80;3.37;;;;;;;;;;4961045;28;20429;-54
2022/09/14 03:00:29;;;;;;;4.20;3.60;;;;;;;;;;4940617;28;21190;-55
2022/09/14 03:02:55;;;;;;;3.97;3.43;;;;;;;;;;4959693;28;20438;-54
2022/09/14 03:05:21;;;;;;;4.13;3.73;;;;;;;;;;4936238;28;20454;-54
2022/09/14 03:07:47;;;;;;;4.13;3.73;;;;;;;;;;4946580;28;20449;-61
2022/09/14 03:10:13;;;;;;;4.90;3.53;;;;;;;;;;4960398;28;20952;-56
2022/09/14 03:12:39;;;;;;;9.07;4.10;;;;;;;;;;4953149;28;20221;-55
2022/09/14 03:15:06;;;;;;;8.20;4.97;;;;;;;;;;4960961;28;20433;-54
2022/09/14 03:17:32;;;;;;;9.73;4.07;;;;;;;;;;4946245;28;20544;-55
2022/09/14 03:19:57;;;;;;;6.47;5.20;;;;;;;;;;4960534;28;20749;-55
2022/09/14 03:22:23;;;;;;;5.80;3.97;;;;;;;;;;4937986;28;20434;-53
2022/09/14 03:24:49;;;;;;;6.63;4.73;;;;;;;;;;4952757;28;23591;-55
2022/09/14 03:27:15;;;;;;;6.93;4.47;;;;;;;;;;4946595;28;20521;-54
2022/09/14 03:29:41;;;;;;;4.30;3.70;;;;;;;;;;4931835;28;20446;-52
2022/09/14 03:32:33;;;;;;;5.73;5.20;;;;;;;;;;4949897;28;20592;-53
2022/09/14 03:34:59;;;;;;;5.53;4.30;;;;;;;;;;4962055;28;20245;-53
2022/09/14 03:37:25;;;;;;;5.83;4.43;;;;;;;;;;4934833;28;21353;-54
2022/09/14 03:39:51;;;;;;;4.43;4.03;;;;;;;;;;4934404;28;20618;-53
2022/09/14 03:42:17;;;;;;;4.53;4.03;;;;;;;;;;4962881;28;20447;-55
2022/09/14 03:45:05;;;;;;;7.23;4.70;;;;;;;;;;4945874;28;20465;-55
2022/09/14 03:47:31;;;;;;;5.10;4.07;;;;;;;;;;4953388;28;20445;-55
2022/09/14 03:49:57;;;;;;;4.60;4.20;;;;;;;;;;4961211;28;20559;-54
2022/09/14 03:52:23;;;;;;;5.77;4.37;;;;;;;;;;4959854;28;20498;-54
2022/09/14 03:54:49;;;;;;;6.60;5.20;;;;;;;;;;4939547;28;20572;-54
2022/09/14 03:57:15;;;;;;;5.70;4.87;;;;;;;;;;4964217;28;20508;-53
2022/09/14 03:59:42;;;;;;;7.20;5.60;;;;;;;;;;4965081;28;20438;-54
2022/09/14 04:02:08;;;;;;;11.53;5.40;;;;;;;;;;4960080;28;20997;-54
2022/09/14 04:04:34;;;;;;;5.90;5.10;;;;;;;;;;4941325;28;20872;-54
2022/09/14 04:07:00;;;;;;;9.73;5.40;;;;;;;;;;4949975;28;20721;-54
2022/09/14 04:09:26;;;;;;;5.90;4.63;;;;;;;;;;4952159;28;20687;-54
2022/09/14 04:11:53;;;;;;;5.87;4.63;;;;;;;;;;4952586;28;20190;-54
2022/09/14 04:14:19;;;;;;;8.50;5.77;;;;;;;;;;4956047;28;20680;-52
2022/09/14 04:16:44;;;;;;;7.40;5.60;;;;;;;;;;4955664;28;20489;-55
2022/09/14 04:19:11;;;;;;;5.70;4.90;;;;;;;;;;4961437;28;20925;-53
2022/09/14 04:21:37;;;;;;;6.87;5.57;;;;;;;;;;4963433;28;20280;-54
2022/09/14 04:24:10;;;;;;;9.67;6.03;;;;;;;;;;4962653;28;20450;-54
2022/09/14 04:26:36;;;;;;;20.33;10.63;;;;;;;;;;4923726;28;20445;-53
2022/09/14 04:29:02;;;;;;;9.43;7.50;;;;;;;;;;4959914;28;20453;-53
2022/09/14 04:31:28;;;;;;;9.50;6.33;;;;;;;;;;4959423;28;20437;-53
2022/09/14 04:33:55;;;;;;;7.47;5.00;;;;;;;;;;4957895;28;20289;-55
2022/09/14 04:36:22;;;;;;;12.10;6.20;;;;;;;;;;4956656;28;20456;-54
2022/09/14 04:38:48;;;;;;;6.17;5.57;;;;;;;;;;4947885;28;20430;-53
2022/09/14 04:41:19;;;;;;;7.90;5.70;;;;;;;;;;4955397;28;20436;-56
2022/09/14 04:43:45;;;;;;;6.03;4.83;;;;;;;;;;4934508;28;20467;-54
2022/09/14 04:46:13;;;;;;;4.87;4.40;;;;;;;;;;4933733;28;20977;-54
2022/09/14 04:48:39;;;;;;;5.90;4.87;;;;;;;;;;4950592;28;20442;-55
2022/09/14 04:51:06;;;;;;;4.83;4.43;;;;;;;;;;4955748;28;20443;-55
2022/09/14 04:53:33;;;;;;;7.57;6.10;;;;;;;;;;4962588;28;20485;-55
2022/09/14 04:56:02;;;;;;;5.80;4.90;;;;;;;;;;4931124;28;20442;-55
2022/09/14 04:58:28;;;;;;;5.97;4.90;;;;;;;;;;4959995;28;20454;-55
2022/09/14 05:00:55;;;;;;;4.90;4.43;;;;;;;;;;4921641;28;20450;-54
2022/09/14 05:03:21;;;;;;;5.93;4.30;;;;;;;;;;4959824;28;20452;-53
2022/09/14 05:05:47;;;;;;;5.47;4.93;;;;;;;;;;4932403;28;20448;-54
2022/09/14 05:08:13;;;;;;;6.23;4.93;;;;;;;;;;4952123;28;20451;-55
2022/09/14 05:10:39;;;;;;;6.00;5.30;;;;;;;;;;4928056;28;20974;-55
2022/09/14 05:13:05;;;;;;;5.77;5.27;;;;;;;;;;4958183;28;20517;-55
2022/09/14 05:15:31;;;;;;;5.80;5.00;;;;;;;;;;4912651;28;20500;-55
2022/09/14 05:17:57;;;;;;;5.63;4.87;;;;;;;;;;4961982;28;21165;-56
2022/09/14 05:20:23;;;;;;;5.20;4.57;;;;;;;;;;4957445;28;20453;-55
2022/09/14 05:22:50;;;;;;;5.83;4.77;;;;;;;;;;4964604;28;20652;-56
2022/09/14 05:25:16;;;;;;;5.47;4.87;;;;;;;;;;4937603;28;20226;-56
2022/09/14 05:27:42;;;;;;;7.60;5.00;;;;;;;;;;4961554;28;20555;-54
2022/09/14 05:30:08;;;;;;;6.50;4.67;;;;;;;;;;4942503;28;20445;-56
2022/09/14 05:32:34;;;;;;;7.23;6.53;;;;;;;;;;4961635;28;20179;-60
2022/09/14 05:35:00;;;;;;;6.87;4.60;;;;;;;;;;4935028;28;20452;-56
2022/09/14 05:37:29;;;;;;;5.20;4.70;;;;;;;;;;4953914;28;20462;-56
2022/09/14 05:39:55;;;;;;;6.00;5.03;;;;;;;;;;4965614;28;20962;-55
2022/09/14 05:42:21;;;;;;;8.07;4.73;;;;;;;;;;4963416;28;20565;-55
2022/09/14 05:44:47;;;;;;;7.03;5.50;;;;;;;;;;4938891;28;20273;-56
2022/09/14 05:47:13;;;;;;;7.30;6.60;;;;;;;;;;4970522;28;20453;-56
2022/09/14 05:49:39;;;;;;;6.43;5.50;;;;;;;;;;4921521;28;20817;-57
2022/09/14 05:52:05;;;;;;;8.40;6.60;;;;;;;;;;4973058;28;20489;-55
2022/09/14 05:54:31;;;;;;;8.97;6.30;;;;;;;;;;4944205;28;20477;-55
2022/09/14 05:56:57;;;;;;;7.70;6.23;;;;;;;;;;4973683;28;20517;-57
2022/09/14 05:59:23;;;;;;;7.80;7.10;;;;;;;;;;4945656;28;20277;-56
2022/09/14 06:01:49;;;;;;;8.40;6.30;;;;;;;;;;4974691;28;20446;-55
2022/09/14 06:04:15;;;;;;;7.40;6.73;;;;;;;;;;4939758;28;20512;-56
2022/09/14 06:06:41;;;;;;;7.77;6.97;;;;;;;;;;4967085;28;20432;-55
2022/09/14 06:09:07;;;;;;;6.97;6.27;;;;;;;;;;4942149;28;20564;-55
2022/09/14 06:11:35;;;;;;;8.33;6.50;;;;;;;;;;4961484;28;20883;-55
2022/09/14 06:14:01;;;;;;;7.10;6.50;;;;;;;;;;4944996;28;20506;-55
2022/09/14 06:16:27;;;;;;;7.80;6.97;;;;;;;;;;4964411;28;20475;-55
2022/09/14 06:18:54;;;;;;;11.50;7.07;;;;;;;;;;4927940;28;20888;-56
2022/09/14 06:21:33;;;;;;;10.17;7.30;;;;;;;;;;4939230;28;20998;-55
2022/09/14 06:24:03;;;;;;;8.10;7.27;;;;;;;;;;4972811;28;20441;-55
2022/09/14 06:26:29;;;;;;;7.20;6.50;;;;;;;;;;4949595;28;20441;-55
2022/09/14 06:28:55;;;;;;;9.97;7.50;;;;;;;;;;4970489;28;20440;-57
2022/09/14 06:31:21;;;;;;;9.93;6.60;;;;;;;;;;4961007;28;20429;-55
2022/09/14 06:33:47;;;;;;;12.20;5.80;;;;;;;;;;4926002;28;20483;-55
2022/09/14 06:36:14;;;;;;;8.10;6.47;;;;;;;;;;4957923;28;20477;-56
2022/09/14 06:38:47;;;;;;;6.93;6.10;;;;;;;;;;4924865;28;20459;-57
2022/09/14 06:41:16;;;;;;;8.10;5.60;;;;;;;;;;4957492;28;20436;-60
2022/09/14 06:43:55;;;;;;;7.77;6.27;;;;;;;;;;4948057;28;20453;-62
2022/09/14 06:46:22;;;;;;;7.07;6.30;;;;;;;;;;4949570;28;20832;-54
2022/09/14 06:49:22;;;;;;;13.03;6.33;;;;;;;;;;4939614;28;20665;-55
2022/09/14 06:51:59;;;;;;;7.53;6.30;;;;;;;;;;4955466;28;20445;-56
2022/09/14 06:54:26;;;;;;;6.80;5.90;;;;;;;;;;4950793;28;20477;-60
2022/09/14 06:56:52;;;;;;;6.10;5.50;;;;;;;;;;4959435;28;21787;-54
2022/09/14 06:59:18;;;;;;;6.60;6.00;;;;;;;;;;4959623;28;20439;-55
2022/09/14 07:01:48;;;;;;;6.70;5.40;;;;;;;;;;4954822;28;20567;-56
2022/09/14 07:04:15;;;;;;;7.70;5.63;;;;;;;;;;4940479;28;20457;-56
2022/09/14 07:06:45;;;;;;;7.07;5.90;;;;;;;;;;4962403;28;20438;-56
2022/09/14 07:09:18;;;;;;;6.47;5.70;;;;;;;;;;4931253;28;20811;-55
2022/09/14 07:11:44;;;;;;;7.40;5.87;;;;;;;;;;4952672;28;20807;-55
2022/09/14 07:14:10;;;;;;;6.60;5.47;;;;;;;;;;4936606;28;20613;-55
2022/09/14 07:16:36;;;;;;;6.53;5.83;;;;;;;;;;4958118;28;20426;-55
2022/09/14 07:19:04;;;;;;;6.40;5.80;;;;;;;;;;4932875;28;20856;-56
2022/09/14 07:21:30;;;;;;;9.00;7.70;;;;;;;;;;4910758;28;20465;-56
2022/09/14 07:23:56;;;;;;;6.47;5.00;;;;;;;;;;4952008;28;20962;-55
2022/09/14 07:26:23;;;;;;;6.33;5.73;;;;;;;;;;4943235;28;20456;-56
2022/09/14 07:28:50;;;;;;;7.33;5.40;;;;;;;;;;4968097;28;20457;-55
2022/09/14 07:31:36;;;;;;;6.33;5.67;;;;;;;;;;4947120;28;20524;-53
2022/09/14 07:34:02;;;;;;;6.40;5.10;;;;;;;;;;4976398;28;20474;-55
2022/09/14 07:36:29;;;;;;;8.67;6.00;;;;;;;;;;4943224;28;20977;-55
2022/09/14 07:38:55;;;;;;;5.90;5.40;;;;;;;;;;4982245;28;20479;-56
2022/09/14 07:41:22;;;;;;;9.20;6.67;;;;;;;;;;4952932;28;20524;-56
2022/09/14 07:43:48;;;;;;;6.37;5.10;;;;;;;;;;4974692;28;21535;-56
2022/09/14 07:46:14;;;;;;;5.10;4.70;;;;;;;;;;4944652;28;20449;-55
2022/09/14 07:48:40;;;;;;;6.10;5.47;;;;;;;;;;4968572;28;20449;-55
2022/09/14 07:51:09;;;;;;;7.20;5.03;;;;;;;;;;4937031;28;20193;-55
2022/09/14 07:53:37;;;;;;;5.43;5.00;;;;;;;;;;4980759;28;20484;-56
2022/09/14 07:56:03;;;;;;;9.00;4.83;;;;;;;;;;4967286;28;20504;-57
2022/09/14 07:58:29;;;;;;;4.50;4.10;;;;;;;;;;4972820;28;20457;-56
2022/09/14 08:00:58;;;;;;;5.50;4.50;;;;;;;;;;4972426;28;20629;-55
2022/09/14 08:03:24;;;;;;;9.13;5.87;;;;;;;;;;4971063;28;20541;-56
2022/09/14 08:05:57;;;;;;;4.60;4.20;;;;;;;;;;4944781;28;20523;-55
2022/09/14 08:08:23;;;;;;;5.23;4.70;;;;;;;;;;4972674;28;21862;-56
2022/09/14 08:10:49;;;;;;;5.30;4.23;;;;;;;;;;4941719;28;20524;-56
2022/09/14 08:13:15;;;;;;;5.93;5.30;;;;;;;;;;4988072;28;20485;-55
2022/09/14 08:15:41;;;;;;;6.10;4.40;;;;;;;;;;4943676;28;20520;-54
2022/09/14 08:18:07;;;;;;;9.17;5.40;;;;;;;;;;4979094;28;20441;-55
2022/09/14 08:20:33;;;;;;;6.60;5.00;;;;;;;;;;4969628;28;20472;-55
2022/09/14 08:22:59;;;;;;;5.70;4.90;;;;;;;;;;4973815;28;20253;-55
2022/09/14 08:25:25;;;;;;;4.90;4.40;;;;;;;;;;4939608;28;20449;-56
2022/09/14 08:27:51;;;;;;;4.63;4.00;;;;;;;;;;4949543;28;20658;-55
2022/09/14 08:30:17;;;;;;;4.67;3.67;;;;;;;;;;4971858;28;20481;-56
2022/09/14 08:32:44;;;;;;;8.00;4.50;;;;;;;;;;4961574;28;20465;-56
2022/09/14 08:35:10;;;;;;;4.10;3.70;;;;;;;;;;4970462;28;20464;-55
2022/09/14 08:37:36;;;;;;;7.10;5.00;;;;;;;;;;4943983;28;20485;-58
2022/09/14 08:40:02;;;;;;;6.97;3.60;;;;;;;;;;4973085;28;20495;-56
2022/09/14 08:42:29;;;;;;;5.90;3.80;;;;;;;;;;4958030;28;20444;-56
2022/09/14 08:44:55;;;;;;;5.67;3.70;;;;;;;;;;4972824;28;20434;-57
2022/09/14 08:47:23;;;;;;;7.27;4.63;;;;;;;;;;4946840;28;20457;-57
2022/09/14 08:49:54;;;;;;;6.40;3.77;;;;;;;;;;4978101;28;20438;-57
2022/09/14 08:52:27;;;;;;;4.47;4.07;;;;;;;;;;4968557;28;20442;-55
2022/09/14 08:54:54;;;;;;;6.10;3.73;;;;;;;;;;4973399;28;20982;-56
2022/09/14 08:57:23;;;;;;;7.17;3.80;;;;;;;;;;4938197;28;20458;-56
2022/09/14 09:00:06;;;;;;;4.00;3.50;;;;;;;;;;4971627;28;20444;-58
2022/09/14 09:02:46;;;;;;;5.50;3.77;;;;;;;;;;4951306;28;20570;-57
2022/09/14 09:05:33;;;;;;;8.00;4.10;;;;;;;;;;4947768;28;20787;-57
2022/09/14 09:07:59;;;;;;;3.80;3.33;;;;;;;;;;4926457;28;20462;-55
2022/09/14 09:10:25;;;;;;;4.53;3.60;;;;;;;;;;4950782;28;20585;-55
2022/09/14 09:12:52;;;;;;;6.60;4.63;;;;;;;;;;4946848;28;20452;-57
2022/09/14 09:15:26;;;;;;;6.70;3.27;;;;;;;;;;4935029;28;20453;-56
2022/09/14 09:18:08;;;;;;;3.27;2.97;;;;;;;;;;4931880;28;20445;-55
2022/09/14 09:20:37;;;;;;;4.43;3.07;;;;;;;;;;4920881;28;21825;-55
2022/09/14 09:23:20;;;;;;;6.07;4.00;;;;;;;;;;4937932;28;20516;-55
2022/09/14 09:25:51;;;;;;;4.33;3.10;;;;;;;;;;4915673;28;21305;-57
2022/09/14 09:28:17;;;;;;;4.90;3.03;;;;;;;;;;4952368;28;20854;-57
2022/09/14 09:30:44;;;;;;;5.23;3.07;;;;;;;;;;4938670;28;20633;-56
2022/09/14 09:33:17;;;;;;;3.57;2.73;;;;;;;;;;4981572;28;20476;-56
2022/09/14 09:35:43;;;;;;;4.83;2.53;;;;;;;;;;4965757;28;20430;-57
2022/09/14 09:38:13;;;;;;;8.60;2.87;;;;;;;;;;4975768;28;20963;-58
2022/09/14 09:40:43;;;;;;;3.70;2.63;;;;;;;;;;4961647;28;20983;-57
2022/09/14 09:43:10;;;;;;;4.57;2.83;;;;;;;;;;4971947;28;20515;-54
2022/09/14 09:45:46;;;;;;;3.20;2.80;;;;;;;;;;4949974;28;20450;-56
2022/09/14 09:48:13;;;;;;;7.73;4.30;;;;;;;;;;4970776;28;20975;-58
2022/09/14 09:50:49;;;;;;;3.93;2.90;;;;;;;;;;4951827;28;20514;-56
2022/09/14 09:53:16;;;;;;;5.10;2.63;;;;;;;;;;4973273;28;20519;-56
2022/09/14 09:55:43;;;;;;;8.97;2.57;;;;;;;;;;4947799;28;20813;-55
2022/09/14 09:58:27;;;;;;;11.23;3.87;;;;;;;;;;4982180;28;20444;-55
2022/09/14 10:01:03;;;;;;;5.50;3.20;;;;;;;;;;4941978;28;20524;-55
2022/09/14 10:03:31;;;;;;;3.27;2.97;;;;;;;;;;4967366;28;20446;-54
2022/09/14 10:06:01;;;;;;;3.40;2.70;;;;;;;;;;4944664;28;20601;-56
2022/09/14 10:08:27;;;;;;;3.47;3.17;;;;;;;;;;4987255;28;22020;-55
2022/09/14 10:10:53;;;;;;;3.70;3.13;;;;;;;;;;4969762;28;20999;-57
2022/09/14 10:13:25;;;;;;;3.73;2.57;;;;;;;;;;4971396;28;20568;-55
2022/09/14 10:15:51;;;;;;;3.70;3.13;;;;;;;;;;4964736;28;20448;-58
2022/09/14 10:18:17;;;;;;;3.17;2.73;;;;;;;;;;4969581;28;20438;-57
2022/09/14 10:21:04;;;;;;;3.73;3.07;;;;;;;;;;4942625;28;20470;-55
2022/09/14 10:23:32;;;;;;;7.50;4.33;;;;;;;;;;4971062;28;20495;-56
2022/09/14 10:26:13;;;;;;;4.77;2.80;;;;;;;;;;4953756;28;20782;-56
2022/09/14 10:28:40;;;;;;;2.90;2.60;;;;;;;;;;4977208;28;20854;-56
2022/09/14 10:31:18;;;;;;;3.97;3.57;;;;;;;;;;4922829;28;20808;-58
2022/09/14 10:33:47;;;;;;;3.80;3.37;;;;;;;;;;4968379;28;20473;-57
2022/09/14 10:36:23;;;;;;;5.40;3.00;;;;;;;;;;4946806;28;20934;-57
2022/09/14 10:38:59;;;;;;;4.20;2.83;;;;;;;;;;4970971;28;20647;-56
2022/09/14 10:41:29;;;;;;;5.67;3.63;;;;;;;;;;4965687;28;20533;-56
2022/09/14 10:44:01;;;;;;;4.10;3.37;;;;;;;;;;4968031;28;20446;-55
2022/09/14 10:46:48;;;;;;;2.90;2.53;;;;;;;;;;4967593;28;20445;-56
2022/09/14 10:49:17;;;;;;;5.13;2.60;;;;;;;;;;4964685;28;20473;-58
2022/09/14 10:51:46;;;;;;;5.73;3.50;;;;;;;;;;4951169;28;20445;-57
2022/09/14 10:54:31;;;;;;;4.00;3.00;;;;;;;;;;4970193;28;20474;-57
2022/09/14 10:57:01;;;;;;;3.17;2.87;;;;;;;;;;4940780;28;20508;-56
2022/09/14 10:59:53;;;;;;;7.60;2.63;;;;;;;;;;4976078;28;20454;-59
2022/09/14 11:02:33;;;;;;;6.40;3.17;;;;;;;;;;4943360;28;20496;-58
2022/09/14 11:05:21;;;;;;;5.40;3.10;;;;;;;;;;4975181;28;20473;-61
2022/09/14 11:08:03;;;;;;;4.73;3.23;;;;;;;;;;4950194;28;20812;-56
2022/09/14 11:10:32;;;;;;;3.80;2.60;;;;;;;;;;4954255;28;21345;-56
2022/09/14 11:13:10;;;;;;;8.03;3.17;;;;;;;;;;4963494;28;20514;-55
2022/09/14 11:15:54;;;;;;;3.00;2.57;;;;;;;;;;4965773;28;21733;-55
2022/09/14 11:18:39;;;;;;;3.77;2.80;;;;;;;;;;4976165;28;20451;-56
2022/09/14 11:21:13;;;;;;;2.70;2.30;;;;;;;;;;4946871;28;21180;-55
2022/09/14 11:23:49;;;;;;;2.90;2.27;;;;;;;;;;4965135;28;21006;-56
2022/09/14 11:26:14;;;;;;;4.83;2.53;;;;;;;;;;4946082;28;20425;-55
2022/09/14 11:28:42;;;;;;;5.63;2.47;;;;;;;;;;4968175;28;20430;-55
2022/09/14 11:31:14;;;;;;;4.20;2.90;;;;;;;;;;4965537;28;20175;-56
2022/09/14 11:33:46;;;;;;;3.53;2.53;;;;;;;;;;4968696;28;20527;-55
2022/09/14 11:36:32;;;;;;;5.60;2.80;;;;;;;;;;4927348;28;20454;-57
2022/09/14 11:39:03;;;;;;;2.87;2.47;;;;;;;;;;4975948;28;20524;-56
2022/09/14 11:41:33;;;;;;;3.93;3.43;;;;;;;;;;4926927;28;20931;-56
2022/09/14 11:44:02;;;;;;;4.40;2.20;;;;;;;;;;4966426;28;20440;-57
2022/09/14 11:46:39;;;;;;;5.73;3.77;;;;;;;;;;4942113;28;20453;-54
2022/09/14 11:49:14;;;;;;;3.93;2.63;;;;;;;;;;4989049;28;20441;-56
2022/09/14 11:51:40;;;;;;;6.20;2.63;;;;;;;;;;4940603;28;20448;-56
2022/09/14 11:54:15;;;;;;;3.70;2.33;;;;;;;;;;4967407;28;20482;-57
2022/09/14 11:56:42;;;;;;;5.93;2.70;;;;;;;;;;4937087;28;20503;-55
2022/09/14 11:59:10;;;;;;;5.53;3.40;;;;;;;;;;4971067;28;20607;-55
2022/09/14 12:01:36;;;;;;;5.70;2.60;;;;;;;;;;4930826;28;20552;-54
2022/09/14 12:04:07;;;;;;;4.00;2.60;;;;;;;;;;4938310;28;20535;-56
2022/09/14 12:06:36;;;;;;;6.30;2.90;;;;;;;;;;4964787;28;20469;-55
2022/09/14 12:09:21;;;;;;;3.30;2.50;;;;;;;;;;4941682;28;20441;-55
2022/09/14 12:11:51;;;;;;;4.10;2.90;;;;;;;;;;4976325;28;20440;-57
2022/09/14 12:14:23;;;;;;;7.43;2.87;;;;;;;;;;4963469;28;20478;-58
2022/09/14 12:16:58;;;;;;;3.47;2.57;;;;;;;;;;4957771;28;20468;-56
2022/09/14 12:19:26;;;;;;;4.20;2.47;;;;;;;;;;4933769;28;22523;-56
2022/09/14 12:21:51;;;;;;;4.30;2.07;;;;;;;;;;4936602;28;20438;-56
2022/09/14 12:24:21;;;;;;;4.80;2.70;;;;;;;;;;4931425;28;20822;-56
2022/09/14 12:26:47;;;;;;;5.77;2.87;;;;;;;;;;4950906;28;20190;-56
2022/09/14 12:29:24;;;;;;;5.73;2.80;;;;;;;;;;4939627;28;21064;-55
2022/09/14 12:31:50;;;;;;;4.93;2.80;;;;;;;;;;4932092;28;20476;-55
2022/09/14 12:34:24;;;;;;;3.50;2.33;;;;;;;;;;4907524;28;20481;-55
2022/09/14 12:36:52;;;;;;;7.60;3.10;;;;;;;;;;4966523;28;20190;-56
2022/09/14 12:39:21;;;;;;;5.07;4.07;;;;;;;;;;4939448;28;20454;-55
2022/09/14 12:41:47;;;;;;;9.07;3.43;;;;;;;;;;4970478;28;20480;-56
2022/09/14 12:44:42;;;;;;;4.80;3.40;;;;;;;;;;4966267;28;20418;-55
2022/09/14 12:47:24;;;;;;;7.10;3.90;;;;;;;;;;4948244;28;20457;-55
2022/09/14 12:49:50;;;;;;;7.37;3.47;;;;;;;;;;4959954;28;20446;-55
2022/09/14 12:52:23;;;;;;;6.73;3.80;;;;;;;;;;4964632;28;20742;-55
2022/09/14 12:54:54;;;;;;;5.47;3.23;;;;;;;;;;4961087;28;20484;-54
2022/09/14 12:57:26;;;;;;;7.83;3.57;;;;;;;;;;4967204;28;20767;-54
2022/09/14 13:00:10;;;;;;;4.17;3.40;;;;;;;;;;4974474;28;20974;-55
2022/09/14 13:02:46;;;;;;;4.20;3.80;;;;;;;;;;4950657;28;20711;-54
2022/09/14 13:05:19;;;;;;;7.13;3.60;;;;;;;;;;4968024;28;20809;-56
2022/09/14 13:07:51;;;;;;;4.70;3.60;;;;;;;;;;4952079;28;20434;-55
2022/09/14 13:10:18;;;;;;;4.00;3.30;;;;;;;;;;4989022;28;20469;-54
2022/09/14 13:12:44;;;;;;;5.93;3.40;;;;;;;;;;4925168;28;20818;-55
2022/09/14 13:15:24;;;;;;;6.00;4.00;;;;;;;;;;4971051;28;20453;-54
2022/09/14 13:17:56;;;;;;;3.93;2.80;;;;;;;;;;4983090;28;20454;-54
2022/09/14 13:20:22;;;;;;;4.90;3.50;;;;;;;;;;4964272;28;20456;-55
2022/09/14 13:22:48;;;;;;;4.80;3.23;;;;;;;;;;4936124;28;20946;-54
2022/09/14 13:25:25;;;;;;;5.67;2.90;;;;;;;;;;4969423;28;20577;-55
2022/09/14 13:27:52;;;;;;;3.30;2.63;;;;;;;;;;4965721;28;20532;-55
2022/09/14 13:30:22;;;;;;;2.63;2.43;;;;;;;;;;4964496;28;21124;-54
2022/09/14 13:32:51;;;;;;;4.20;3.30;;;;;;;;;;4941840;28;20461;-54
2022/09/14 13:35:17;;;;;;;3.97;3.33;;;;;;;;;;4977216;28;20447;-54
2022/09/14 13:37:44;;;;;;;5.63;3.80;;;;;;;;;;4939920;28;20672;-56
2022/09/14 13:40:10;;;;;;;3.77;2.77;;;;;;;;;;4957725;28;20580;-56
2022/09/14 13:42:52;;;;;;;4.57;3.43;;;;;;;;;;4947974;28;20452;-54
2022/09/14 13:45:18;;;;;;;3.93;2.40;;;;;;;;;;4967439;28;20913;-54
2022/09/14 13:47:44;;;;;;;3.80;2.70;;;;;;;;;;4959715;28;20855;-54
2022/09/14 13:50:13;;;;;;;3.20;2.13;;;;;;;;;;4969439;28;20442;-55
2022/09/14 13:52:41;;;;;;;4.10;2.53;;;;;;;;;;4960709;28;20430;-55
2022/09/14 13:55:11;;;;;;;2.37;2.00;;;;;;;;;;4962884;28;20501;-55
2022/09/14 13:57:37;;;;;;;3.10;1.90;;;;;;;;;;4953640;28;20930;-56
2022/09/14 14:00:20;;;;;;;2.60;2.10;;;;;;;;;;4964280;28;20450;-55
2022/09/14 14:02:49;;;;;;;3.77;1.83;;;;;;;;;;4938326;28;20969;-56
2022/09/14 14:05:22;;;;;;;2.00;1.40;;;;;;;;;;4971524;28;20500;-53
2022/09/14 14:07:48;;;;;;;2.63;1.70;;;;;;;;;;4965033;28;20438;-54
2022/09/14 14:10:41;;;;;;;2.97;1.30;;;;;;;;;;4966580;28;20578;-53
2022/09/14 14:13:07;;;;;;;2.00;1.80;;;;;;;;;;4950737;28;20487;-54
2022/09/14 14:15:37;;;;;;;2.80;1.57;;;;;;;;;;4976261;28;20454;-54
2022/09/14 14:18:23;;;;;;;2.80;2.07;;;;;;;;;;4949437;28;20445;-55
2022/09/14 14:20:49;;;;;;;2.30;2.10;;;;;;;;;;4948209;28;20434;-54
2022/09/14 14:23:19;;;;;;;2.83;1.90;;;;;;;;;;4965680;28;20445;-55
2022/09/14 14:25:50;;;;;;;4.67;3.23;;;;;;;;;;4940544;28;20480;-53
2022/09/14 14:28:26;;;;;;;3.80;2.00;;;;;;;;;;4986394;28;20937;-55
2022/09/14 14:30:52;;;;;;;3.63;2.60;;;;;;;;;;4948861;28;20472;-56
2022/09/14 14:33:18;;;;;;;2.73;1.90;;;;;;;;;;4987367;28;20513;-55
2022/09/14 14:35:44;;;;;;;3.13;2.57;;;;;;;;;;4971021;28;21018;-54
2022/09/14 14:38:10;;;;;;;2.50;2.20;;;;;;;;;;4972187;28;20437;-57
2022/09/14 14:40:40;;;;;;;2.60;1.80;;;;;;;;;;4959889;28;20433;-54
2022/09/14 14:43:07;;;;;;;3.93;2.00;;;;;;;;;;4963632;28;20433;-55
2022/09/14 14:46:00;;;;;;;2.43;1.77;;;;;;;;;;4971973;28;20437;-54
2022/09/14 14:48:27;;;;;;;2.40;1.53;;;;;;;;;;4964188;28;20475;-57
2022/09/14 14:50:54;;;;;;;4.70;1.70;;;;;;;;;;4955357;28;20888;-54
2022/09/14 14:53:21;;;;;;;4.57;1.77;;;;;;;;;;4959207;28;20509;-56
2022/09/14 14:55:47;;;;;;;3.00;2.20;;;;;;;;;;4974011;28;20472;-54
2022/09/14 14:58:14;;;;;;;2.57;1.97;;;;;;;;;;4967958;28;20442;-55
2022/09/14 15:00:40;;;;;;;4.10;2.10;;;;;;;;;;4968777;28;20533;-56